Du har inga inställningar för hoppväder.nu

Hoppväder.nu

Senast uppdaterat 01:59

UTC-tid

2022-05-23 kl. 23:59


Sol och måne

Solen går upp 3:26 och går ner 23:08 (beräknade cirkatider)
Nästa fullmåne blir om 21 dagar (2022-06-14)

METAR

ESNN (Sundsvall)
(1449 minuter sedan)
ESNN 232350Z 36003KT CAVOK 04/03 Q1009=



ESNK (Kramfors)
(1449 minuter sedan)
ESNK 232350Z AUTO 01002KT 9999 NCD 06/01 Q1009=



ESNO (Örnsköldsvik)
(1449 minuter sedan)
ESNO 232350Z AUTO 05002KT 9999 NCD 01/01 Q1010=



ESNY (Söderhamn)
ESNY NIL=



ESNZ (Östersund)
(1449 minuter sedan)
ESNZ 232350Z AUTO 16007KT 9999 NCD 12/04 Q1006=



TAF

ESNN (Sundsvall)
(209 minuter sedan)
ESNN 232030Z 2321/2401 11004KT CAVOK=



ESNK (Kramfors)
ESNK



ESNO (Örnsköldsvik)
ESNO



ESNY (Söderhamn)
ESNY



ESNZ (Östersund)
ESNZ





Kodnycklar till TAF och METAR






LHP

(Sundsvall är område se42d i Delområde 4)

Prognos är inte uppdaterad






Preliminär prognos